sensor_id;sensor_type;location;lat;lon;timestamp;P1;durP1;ratioP1;P2;durP2;ratioP2
39300;SDS011;25019;42.626;23.380;2022-12-11T00:01:25;11.00;;;7.83;;
39300;SDS011;25019;42.626;23.380;2022-12-11T00:03:50;12.07;;;7.83;;
39300;SDS011;25019;42.626;23.380;2022-12-11T00:06:17;14.73;;;8.47;;
39300;SDS011;25019;42.626;23.380;2022-12-11T00:08:45;14.00;;;7.90;;
39300;SDS011;25019;42.626;23.380;2022-12-11T00:11:14;10.47;;;7.57;;
39300;SDS011;25019;42.626;23.380;2022-12-11T00:13:40;7.97;;;6.63;;
39300;SDS011;25019;42.626;23.380;2022-12-11T00:16:07;10.83;;;7.37;;
39300;SDS011;25019;42.626;23.380;2022-12-11T00:18:32;12.63;;;7.20;;
39300;SDS011;25019;42.626;23.380;2022-12-11T00:20:59;11.43;;;7.80;;
39300;SDS011;25019;42.626;23.380;2022-12-11T00:23:28;13.03;;;7.03;;
39300;SDS011;25019;42.626;23.380;2022-12-11T00:25:54;14.10;;;8.20;;
39300;SDS011;25019;42.626;23.380;2022-12-11T00:28:20;13.70;;;8.90;;
39300;SDS011;25019;42.626;23.380;2022-12-11T00:30:46;15.03;;;10.27;;
39300;SDS011;25019;42.626;23.380;2022-12-11T00:33:12;16.80;;;10.63;;
39300;SDS011;25019;42.626;23.380;2022-12-11T00:35:39;15.97;;;10.53;;
39300;SDS011;25019;42.626;23.380;2022-12-11T00:38:06;15.90;;;9.97;;
39300;SDS011;25019;42.626;23.380;2022-12-11T00:40:32;16.37;;;10.43;;
39300;SDS011;25019;42.626;23.380;2022-12-11T00:43:01;18.60;;;11.90;;
39300;SDS011;25019;42.626;23.380;2022-12-11T00:45:27;22.57;;;15.13;;
39300;SDS011;25019;42.626;23.380;2022-12-11T00:47:53;23.60;;;14.53;;
39300;SDS011;25019;42.626;23.380;2022-12-11T00:50:18;26.37;;;16.87;;
39300;SDS011;25019;42.626;23.380;2022-12-11T00:52:44;35.87;;;29.00;;
39300;SDS011;25019;42.626;23.380;2022-12-11T00:55:09;26.53;;;19.13;;
39300;SDS011;25019;42.626;23.380;2022-12-11T00:57:35;21.80;;;16.80;;
39300;SDS011;25019;42.626;23.380;2022-12-11T01:00:01;19.17;;;13.73;;
39300;SDS011;25019;42.626;23.380;2022-12-11T01:02:32;19.13;;;14.77;;
39300;SDS011;25019;42.626;23.380;2022-12-11T01:04:58;17.77;;;12.43;;
39300;SDS011;25019;42.626;23.380;2022-12-11T01:07:24;16.17;;;12.53;;
39300;SDS011;25019;42.626;23.380;2022-12-11T01:09:49;15.43;;;11.33;;
39300;SDS011;25019;42.626;23.380;2022-12-11T01:12:33;16.90;;;10.60;;
39300;SDS011;25019;42.626;23.380;2022-12-11T01:14:59;17.23;;;9.87;;
39300;SDS011;25019;42.626;23.380;2022-12-11T01:17:24;13.60;;;8.93;;
39300;SDS011;25019;42.626;23.380;2022-12-11T01:19:52;13.30;;;8.60;;
39300;SDS011;25019;42.626;23.380;2022-12-11T01:22:18;12.23;;;8.97;;
39300;SDS011;25019;42.626;23.380;2022-12-11T01:24:43;10.93;;;8.13;;
39300;SDS011;25019;42.626;23.380;2022-12-11T01:27:09;13.03;;;8.10;;
39300;SDS011;25019;42.626;23.380;2022-12-11T01:29:34;12.87;;;8.40;;
39300;SDS011;25019;42.626;23.380;2022-12-11T01:32:00;13.40;;;8.80;;
39300;SDS011;25019;42.626;23.380;2022-12-11T01:34:28;16.37;;;9.13;;
39300;SDS011;25019;42.626;23.380;2022-12-11T01:36:54;15.47;;;9.70;;
39300;SDS011;25019;42.626;23.380;2022-12-11T01:39:20;12.97;;;9.00;;
39300;SDS011;25019;42.626;23.380;2022-12-11T01:41:46;17.37;;;9.43;;
39300;SDS011;25019;42.626;23.380;2022-12-11T01:46:40;13.40;;;7.77;;
39300;SDS011;25019;42.626;23.380;2022-12-11T01:49:08;9.33;;;5.53;;
39300;SDS011;25019;42.626;23.380;2022-12-11T01:51:38;12.00;;;7.60;;
39300;SDS011;25019;42.626;23.380;2022-12-11T01:54:10;14.13;;;9.87;;
39300;SDS011;25019;42.626;23.380;2022-12-11T01:56:38;21.17;;;11.57;;
39300;SDS011;25019;42.626;23.380;2022-12-11T01:59:07;20.77;;;11.73;;
39300;SDS011;25019;42.626;23.380;2022-12-11T02:01:42;18.57;;;10.40;;
39300;SDS011;25019;42.626;23.380;2022-12-11T02:04:12;15.83;;;9.67;;
39300;SDS011;25019;42.626;23.380;2022-12-11T02:06:41;15.53;;;9.90;;
39300;SDS011;25019;42.626;23.380;2022-12-11T02:09:10;11.47;;;7.77;;
39300;SDS011;25019;42.626;23.380;2022-12-11T02:12:24;11.03;;;7.40;;
39300;SDS011;25019;42.626;23.380;2022-12-11T02:17:23;0.90;;;0.50;;
39300;SDS011;25019;42.626;23.380;2022-12-11T02:20:11;2.67;;;1.50;;
39300;SDS011;25019;42.626;23.380;2022-12-11T02:25:56;3.43;;;1.87;;
39300;SDS011;25019;42.626;23.380;2022-12-11T02:31:22;2.10;;;1.53;;
39300;SDS011;25019;42.626;23.380;2022-12-11T02:36:37;2.40;;;1.43;;
39300;SDS011;25019;42.626;23.380;2022-12-11T02:39:08;1.80;;;1.40;;
39300;SDS011;25019;42.626;23.380;2022-12-11T02:41:37;4.20;;;1.67;;
39300;SDS011;25019;42.626;23.380;2022-12-11T02:44:07;2.57;;;1.73;;
39300;SDS011;25019;42.626;23.380;2022-12-11T02:46:36;1.87;;;1.20;;
39300;SDS011;25019;42.626;23.380;2022-12-11T02:49:03;2.87;;;1.40;;
39300;SDS011;25019;42.626;23.380;2022-12-11T02:51:33;3.07;;;1.73;;
39300;SDS011;25019;42.626;23.380;2022-12-11T02:54:03;3.20;;;2.20;;
39300;SDS011;25019;42.626;23.380;2022-12-11T02:56:38;5.27;;;2.40;;
39300;SDS011;25019;42.626;23.380;2022-12-11T02:59:10;2.87;;;2.20;;
39300;SDS011;25019;42.626;23.380;2022-12-11T03:01:40;2.57;;;1.63;;
39300;SDS011;25019;42.626;23.380;2022-12-11T03:04:06;2.27;;;1.70;;
39300;SDS011;25019;42.626;23.380;2022-12-11T03:06:34;3.50;;;2.00;;
39300;SDS011;25019;42.626;23.380;2022-12-11T03:09:02;4.37;;;1.60;;
39300;SDS011;25019;42.626;23.380;2022-12-11T03:11:28;3.20;;;1.30;;
39300;SDS011;25019;42.626;23.380;2022-12-11T03:13:54;1.60;;;0.97;;
39300;SDS011;25019;42.626;23.380;2022-12-11T03:18:51;1.17;;;0.80;;
39300;SDS011;25019;42.626;23.380;2022-12-11T03:24:10;2.00;;;1.33;;
39300;SDS011;25019;42.626;23.380;2022-12-11T03:26:39;2.37;;;1.27;;
39300;SDS011;25019;42.626;23.380;2022-12-11T03:29:14;2.27;;;1.10;;
39300;SDS011;25019;42.626;23.380;2022-12-11T03:31:46;3.37;;;1.60;;
39300;SDS011;25019;42.626;23.380;2022-12-11T03:34:26;1.90;;;1.10;;
39300;SDS011;25019;42.626;23.380;2022-12-11T03:36:58;1.50;;;0.90;;
39300;SDS011;25019;42.626;23.380;2022-12-11T03:39:30;1.20;;;0.87;;
39300;SDS011;25019;42.626;23.380;2022-12-11T03:42:00;2.50;;;1.30;;
39300;SDS011;25019;42.626;23.380;2022-12-11T03:44:30;2.27;;;1.00;;
39300;SDS011;25019;42.626;23.380;2022-12-11T03:46:59;4.10;;;1.00;;
39300;SDS011;25019;42.626;23.380;2022-12-11T03:49:28;1.17;;;1.00;;
39300;SDS011;25019;42.626;23.380;2022-12-11T03:51:57;1.67;;;1.30;;
39300;SDS011;25019;42.626;23.380;2022-12-11T03:54:25;2.37;;;1.10;;
39300;SDS011;25019;42.626;23.380;2022-12-11T03:56:52;1.00;;;0.80;;
39300;SDS011;25019;42.626;23.380;2022-12-11T03:59:21;0.90;;;0.80;;
39300;SDS011;25019;42.626;23.380;2022-12-11T04:01:46;3.03;;;0.70;;
39300;SDS011;25019;42.626;23.380;2022-12-11T04:04:12;1.20;;;0.77;;
39300;SDS011;25019;42.626;23.380;2022-12-11T04:06:38;1.33;;;0.80;;
39300;SDS011;25019;42.626;23.380;2022-12-11T04:09:04;2.20;;;0.90;;
39300;SDS011;25019;42.626;23.380;2022-12-11T04:11:29;0.90;;;0.80;;
39300;SDS011;25019;42.626;23.380;2022-12-11T04:14:02;2.00;;;0.70;;
39300;SDS011;25019;42.626;23.380;2022-12-11T04:16:54;3.53;;;0.87;;
39300;SDS011;25019;42.626;23.380;2022-12-11T04:19:22;0.97;;;0.53;;
39300;SDS011;25019;42.626;23.380;2022-12-11T04:22:08;0.97;;;0.63;;
39300;SDS011;25019;42.626;23.380;2022-12-11T04:24:54;1.63;;;0.70;;
39300;SDS011;25019;42.626;23.380;2022-12-11T04:27:19;1.50;;;0.47;;
39300;SDS011;25019;42.626;23.380;2022-12-11T04:30:04;0.50;;;0.50;;
39300;SDS011;25019;42.626;23.380;2022-12-11T04:32:31;2.20;;;0.60;;
39300;SDS011;25019;42.626;23.380;2022-12-11T04:34:57;1.97;;;1.60;;
39300;SDS011;25019;42.626;23.380;2022-12-11T04:37:23;1.90;;;0.93;;
39300;SDS011;25019;42.626;23.380;2022-12-11T04:39:48;3.50;;;1.03;;
39300;SDS011;25019;42.626;23.380;2022-12-11T04:42:14;0.80;;;0.40;;
39300;SDS011;25019;42.626;23.380;2022-12-11T04:44:39;1.07;;;0.70;;
39300;SDS011;25019;42.626;23.380;2022-12-11T04:47:05;0.60;;;0.60;;
39300;SDS011;25019;42.626;23.380;2022-12-11T04:49:31;1.37;;;0.60;;
39300;SDS011;25019;42.626;23.380;2022-12-11T04:51:56;1.07;;;0.70;;
39300;SDS011;25019;42.626;23.380;2022-12-11T04:54:22;1.93;;;0.70;;
39300;SDS011;25019;42.626;23.380;2022-12-11T04:56:47;0.50;;;0.50;;
39300;SDS011;25019;42.626;23.380;2022-12-11T04:59:13;1.20;;;0.50;;
39300;SDS011;25019;42.626;23.380;2022-12-11T05:01:38;1.10;;;0.40;;
39300;SDS011;25019;42.626;23.380;2022-12-11T05:04:04;1.50;;;0.47;;
39300;SDS011;25019;42.626;23.380;2022-12-11T05:06:30;0.73;;;0.40;;
39300;SDS011;25019;42.626;23.380;2022-12-11T05:08:55;2.17;;;0.50;;
39300;SDS011;25019;42.626;23.380;2022-12-11T05:11:21;0.30;;;0.30;;
39300;SDS011;25019;42.626;23.380;2022-12-11T05:13:47;1.87;;;0.40;;
39300;SDS011;25019;42.626;23.380;2022-12-11T05:16:14;1.23;;;0.40;;
39300;SDS011;25019;42.626;23.380;2022-12-11T05:18:40;1.10;;;0.43;;
39300;SDS011;25019;42.626;23.380;2022-12-11T05:21:09;2.00;;;0.70;;
39300;SDS011;25019;42.626;23.380;2022-12-11T05:23:37;0.40;;;0.40;;
39300;SDS011;25019;42.626;23.380;2022-12-11T05:26:04;1.60;;;0.40;;
39300;SDS011;25019;42.626;23.380;2022-12-11T05:28:36;1.23;;;0.63;;
39300;SDS011;25019;42.626;23.380;2022-12-11T05:31:13;2.10;;;0.40;;
39300;SDS011;25019;42.626;23.380;2022-12-11T05:33:41;0.30;;;0.30;;
39300;SDS011;25019;42.626;23.380;2022-12-11T05:36:08;0.67;;;0.40;;
39300;SDS011;25019;42.626;23.380;2022-12-11T05:38:39;1.20;;;0.50;;
39300;SDS011;25019;42.626;23.380;2022-12-11T05:41:05;1.40;;;0.57;;
39300;SDS011;25019;42.626;23.380;2022-12-11T05:43:32;0.40;;;0.40;;
39300;SDS011;25019;42.626;23.380;2022-12-11T05:48:33;1.17;;;0.50;;
39300;SDS011;25019;42.626;23.380;2022-12-11T05:51:00;1.20;;;0.50;;
39300;SDS011;25019;42.626;23.380;2022-12-11T05:53:26;2.43;;;0.57;;
39300;SDS011;25019;42.626;23.380;2022-12-11T05:55:52;2.43;;;0.40;;
39300;SDS011;25019;42.626;23.380;2022-12-11T05:58:18;3.40;;;1.17;;
39300;SDS011;25019;42.626;23.380;2022-12-11T06:00:44;0.50;;;0.40;;
39300;SDS011;25019;42.626;23.380;2022-12-11T06:03:10;2.57;;;0.40;;
39300;SDS011;25019;42.626;23.380;2022-12-11T06:05:39;2.87;;;0.50;;
39300;SDS011;25019;42.626;23.380;2022-12-11T06:08:06;1.77;;;0.40;;
39300;SDS011;25019;42.626;23.380;2022-12-11T06:10:32;2.37;;;0.70;;
39300;SDS011;25019;42.626;23.380;2022-12-11T06:12:57;2.77;;;0.70;;
39300;SDS011;25019;42.626;23.380;2022-12-11T06:15:23;1.90;;;0.70;;
39300;SDS011;25019;42.626;23.380;2022-12-11T06:17:49;2.43;;;1.30;;
39300;SDS011;25019;42.626;23.380;2022-12-11T06:20:14;0.87;;;0.43;;
39300;SDS011;25019;42.626;23.380;2022-12-11T06:22:40;1.23;;;0.50;;
39300;SDS011;25019;42.626;23.380;2022-12-11T06:25:06;0.53;;;0.53;;
39300;SDS011;25019;42.626;23.380;2022-12-11T06:27:31;3.00;;;0.70;;
39300;SDS011;25019;42.626;23.380;2022-12-11T06:29:57;2.03;;;0.50;;
39300;SDS011;25019;42.626;23.380;2022-12-11T06:32:23;1.43;;;0.47;;
39300;SDS011;25019;42.626;23.380;2022-12-11T06:34:48;1.63;;;0.60;;
39300;SDS011;25019;42.626;23.380;2022-12-11T06:37:14;0.90;;;0.40;;
39300;SDS011;25019;42.626;23.380;2022-12-11T06:39:39;1.90;;;0.93;;
39300;SDS011;25019;42.626;23.380;2022-12-11T06:42:05;0.50;;;0.33;;
39300;SDS011;25019;42.626;23.380;2022-12-11T06:44:31;0.57;;;0.30;;
39300;SDS011;25019;42.626;23.380;2022-12-11T06:46:56;0.87;;;0.40;;
39300;SDS011;25019;42.626;23.380;2022-12-11T06:49:22;1.83;;;0.50;;
39300;SDS011;25019;42.626;23.380;2022-12-11T06:51:47;1.77;;;0.40;;
39300;SDS011;25019;42.626;23.380;2022-12-11T06:54:13;2.70;;;0.80;;
39300;SDS011;25019;42.626;23.380;2022-12-11T06:56:39;1.43;;;0.40;;
39300;SDS011;25019;42.626;23.380;2022-12-11T06:59:04;2.07;;;0.50;;
39300;SDS011;25019;42.626;23.380;2022-12-11T07:01:31;0.80;;;0.40;;
39300;SDS011;25019;42.626;23.380;2022-12-11T07:03:57;0.83;;;0.50;;
39300;SDS011;25019;42.626;23.380;2022-12-11T07:06:24;2.10;;;0.40;;
39300;SDS011;25019;42.626;23.380;2022-12-11T07:08:52;1.13;;;0.50;;
39300;SDS011;25019;42.626;23.380;2022-12-11T07:11:19;0.43;;;0.30;;
39300;SDS011;25019;42.626;23.380;2022-12-11T07:13:45;3.50;;;0.63;;
39300;SDS011;25019;42.626;23.380;2022-12-11T07:16:12;1.77;;;0.60;;
39300;SDS011;25019;42.626;23.380;2022-12-11T07:18:40;0.97;;;0.50;;
39300;SDS011;25019;42.626;23.380;2022-12-11T07:21:08;1.93;;;0.50;;
39300;SDS011;25019;42.626;23.380;2022-12-11T07:23:35;1.30;;;0.57;;
39300;SDS011;25019;42.626;23.380;2022-12-11T07:26:09;1.13;;;0.70;;
39300;SDS011;25019;42.626;23.380;2022-12-11T07:28:37;0.50;;;0.50;;
39300;SDS011;25019;42.626;23.380;2022-12-11T07:31:04;0.63;;;0.50;;
39300;SDS011;25019;42.626;23.380;2022-12-11T07:33:30;2.47;;;0.90;;
39300;SDS011;25019;42.626;23.380;2022-12-11T07:35:59;1.50;;;0.50;;
39300;SDS011;25019;42.626;23.380;2022-12-11T07:38:25;1.90;;;0.70;;
39300;SDS011;25019;42.626;23.380;2022-12-11T07:40:51;2.77;;;0.70;;
39300;SDS011;25019;42.626;23.380;2022-12-11T07:43:16;3.80;;;0.60;;
39300;SDS011;25019;42.626;23.380;2022-12-11T07:45:42;1.37;;;0.60;;
39300;SDS011;25019;42.626;23.380;2022-12-11T07:48:07;2.13;;;0.73;;
39300;SDS011;25019;42.626;23.380;2022-12-11T07:50:33;1.00;;;0.53;;
39300;SDS011;25019;42.626;23.380;2022-12-11T07:52:59;2.90;;;0.90;;
39300;SDS011;25019;42.626;23.380;2022-12-11T07:55:24;0.77;;;0.40;;
39300;SDS011;25019;42.626;23.380;2022-12-11T07:57:50;1.73;;;0.50;;
39300;SDS011;25019;42.626;23.380;2022-12-11T08:00:15;1.33;;;0.67;;
39300;SDS011;25019;42.626;23.380;2022-12-11T08:02:41;0.90;;;0.50;;
39300;SDS011;25019;42.626;23.380;2022-12-11T08:05:07;2.10;;;0.70;;
39300;SDS011;25019;42.626;23.380;2022-12-11T08:07:33;2.00;;;0.70;;
39300;SDS011;25019;42.626;23.380;2022-12-11T08:09:59;1.80;;;0.50;;
39300;SDS011;25019;42.626;23.380;2022-12-11T08:12:25;1.97;;;0.60;;
39300;SDS011;25019;42.626;23.380;2022-12-11T08:14:51;2.53;;;0.70;;
39300;SDS011;25019;42.626;23.380;2022-12-11T08:17:16;1.20;;;0.90;;
39300;SDS011;25019;42.626;23.380;2022-12-11T08:19:42;1.70;;;0.90;;
39300;SDS011;25019;42.626;23.380;2022-12-11T08:22:07;0.93;;;0.40;;
39300;SDS011;25019;42.626;23.380;2022-12-11T08:24:33;3.60;;;0.60;;
39300;SDS011;25019;42.626;23.380;2022-12-11T08:26:58;1.73;;;0.60;;
39300;SDS011;25019;42.626;23.380;2022-12-11T08:29:24;0.67;;;0.40;;
39300;SDS011;25019;42.626;23.380;2022-12-11T08:31:50;2.07;;;0.47;;
39300;SDS011;25019;42.626;23.380;2022-12-11T08:34:16;1.90;;;0.50;;
39300;SDS011;25019;42.626;23.380;2022-12-11T08:36:41;2.17;;;0.60;;
39300;SDS011;25019;42.626;23.380;2022-12-11T08:39:07;2.30;;;0.57;;
39300;SDS011;25019;42.626;23.380;2022-12-11T08:41:33;0.97;;;0.43;;
39300;SDS011;25019;42.626;23.380;2022-12-11T08:43:59;0.70;;;0.33;;
39300;SDS011;25019;42.626;23.380;2022-12-11T08:46:26;2.07;;;0.40;;
39300;SDS011;25019;42.626;23.380;2022-12-11T08:48:54;1.30;;;0.40;;
39300;SDS011;25019;42.626;23.380;2022-12-11T08:51:21;1.07;;;0.50;;
39300;SDS011;25019;42.626;23.380;2022-12-11T08:53:48;1.90;;;0.50;;
39300;SDS011;25019;42.626;23.380;2022-12-11T08:56:16;0.83;;;0.50;;
39300;SDS011;25019;42.626;23.380;2022-12-11T08:58:44;1.00;;;0.50;;
39300;SDS011;25019;42.626;23.380;2022-12-11T09:01:12;0.50;;;0.40;;
39300;SDS011;25019;42.626;23.380;2022-12-11T09:03:39;2.30;;;0.90;;
39300;SDS011;25019;42.626;23.380;2022-12-11T09:06:06;1.23;;;0.70;;
39300;SDS011;25019;42.626;23.380;2022-12-11T09:08:33;1.90;;;0.80;;
39300;SDS011;25019;42.626;23.380;2022-12-11T09:11:08;1.47;;;1.00;;
39300;SDS011;25019;42.626;23.380;2022-12-11T09:13:39;2.13;;;0.80;;
39300;SDS011;25019;42.626;23.380;2022-12-11T09:16:06;1.83;;;0.83;;
39300;SDS011;25019;42.626;23.380;2022-12-11T09:18:34;1.67;;;0.90;;
39300;SDS011;25019;42.626;23.380;2022-12-11T09:21:01;2.33;;;1.00;;
39300;SDS011;25019;42.626;23.380;2022-12-11T09:23:29;2.07;;;1.03;;
39300;SDS011;25019;42.626;23.380;2022-12-11T09:25:54;1.87;;;0.80;;
39300;SDS011;25019;42.626;23.380;2022-12-11T09:28:20;1.93;;;1.07;;
39300;SDS011;25019;42.626;23.380;2022-12-11T09:30:46;1.57;;;0.87;;
39300;SDS011;25019;42.626;23.380;2022-12-11T09:33:12;2.17;;;1.00;;
39300;SDS011;25019;42.626;23.380;2022-12-11T09:35:37;2.07;;;0.70;;
39300;SDS011;25019;42.626;23.380;2022-12-11T09:38:03;2.07;;;1.03;;
39300;SDS011;25019;42.626;23.380;2022-12-11T09:40:30;0.80;;;0.60;;
39300;SDS011;25019;42.626;23.380;2022-12-11T09:43:02;1.63;;;0.87;;
39300;SDS011;25019;42.626;23.380;2022-12-11T09:45:35;2.47;;;0.70;;
39300;SDS011;25019;42.626;23.380;2022-12-11T09:48:00;3.67;;;0.80;;
39300;SDS011;25019;42.626;23.380;2022-12-11T09:50:27;6.80;;;1.00;;
39300;SDS011;25019;42.626;23.380;2022-12-11T09:53:15;2.50;;;1.20;;
39300;SDS011;25019;42.626;23.380;2022-12-11T10:04:08;2.00;;;0.90;;
39300;SDS011;25019;42.626;23.380;2022-12-11T10:09:55;1.20;;;0.80;;
39300;SDS011;25019;42.626;23.380;2022-12-11T10:12:36;1.13;;;0.67;;
39300;SDS011;25019;42.626;23.380;2022-12-11T10:17:43;0.97;;;0.80;;
39300;SDS011;25019;42.626;23.380;2022-12-11T10:20:23;1.30;;;1.10;;
39300;SDS011;25019;42.626;23.380;2022-12-11T10:22:52;2.33;;;1.20;;
39300;SDS011;25019;42.626;23.380;2022-12-11T10:25:24;2.30;;;1.00;;
39300;SDS011;25019;42.626;23.380;2022-12-11T10:27:53;2.20;;;0.77;;
39300;SDS011;25019;42.626;23.380;2022-12-11T10:30:20;2.53;;;1.10;;
39300;SDS011;25019;42.626;23.380;2022-12-11T10:35:41;1.47;;;1.37;;
39300;SDS011;25019;42.626;23.380;2022-12-11T10:40:50;2.30;;;2.10;;
39300;SDS011;25019;42.626;23.380;2022-12-11T10:43:19;2.13;;;1.63;;
39300;SDS011;25019;42.626;23.380;2022-12-11T10:45:51;2.47;;;1.43;;
39300;SDS011;25019;42.626;23.380;2022-12-11T10:48:18;5.63;;;5.00;;
39300;SDS011;25019;42.626;23.380;2022-12-11T10:50:56;1.20;;;1.10;;
39300;SDS011;25019;42.626;23.380;2022-12-11T10:53:30;2.00;;;1.10;;
39300;SDS011;25019;42.626;23.380;2022-12-11T10:55:57;1.93;;;1.20;;
39300;SDS011;25019;42.626;23.380;2022-12-11T10:58:25;1.60;;;1.10;;
39300;SDS011;25019;42.626;23.380;2022-12-11T11:00:59;1.47;;;1.30;;
39300;SDS011;25019;42.626;23.380;2022-12-11T11:03:29;1.77;;;1.00;;
39300;SDS011;25019;42.626;23.380;2022-12-11T11:06:05;2.57;;;1.10;;
39300;SDS011;25019;42.626;23.380;2022-12-11T11:08:39;1.40;;;1.10;;
39300;SDS011;25019;42.626;23.380;2022-12-11T11:11:13;1.30;;;1.10;;
39300;SDS011;25019;42.626;23.380;2022-12-11T11:13:43;2.50;;;1.47;;
39300;SDS011;25019;42.626;23.380;2022-12-11T11:16:11;1.63;;;1.43;;
39300;SDS011;25019;42.626;23.380;2022-12-11T11:18:39;1.90;;;1.50;;
39300;SDS011;25019;42.626;23.380;2022-12-11T11:21:06;1.70;;;1.17;;
39300;SDS011;25019;42.626;23.380;2022-12-11T11:23:40;1.90;;;1.53;;
39300;SDS011;25019;42.626;23.380;2022-12-11T11:26:06;4.60;;;1.50;;
39300;SDS011;25019;42.626;23.380;2022-12-11T11:28:34;1.90;;;1.30;;
39300;SDS011;25019;42.626;23.380;2022-12-11T11:33:31;2.63;;;1.23;;
39300;SDS011;25019;42.626;23.380;2022-12-11T11:35:59;2.13;;;0.73;;
39300;SDS011;25019;42.626;23.380;2022-12-11T11:38:49;2.90;;;1.43;;
39300;SDS011;25019;42.626;23.380;2022-12-11T11:44:10;1.50;;;1.10;;
39300;SDS011;25019;42.626;23.380;2022-12-11T11:46:41;0.70;;;0.70;;
39300;SDS011;25019;42.626;23.380;2022-12-11T11:52:03;1.60;;;0.93;;
39300;SDS011;25019;42.626;23.380;2022-12-11T11:54:55;1.43;;;0.80;;
39300;SDS011;25019;42.626;23.380;2022-12-11T11:57:41;2.77;;;1.00;;
39300;SDS011;25019;42.626;23.380;2022-12-11T12:00:20;1.70;;;1.37;;
39300;SDS011;25019;42.626;23.380;2022-12-11T12:02:48;2.27;;;1.20;;
39300;SDS011;25019;42.626;23.380;2022-12-11T12:05:21;1.80;;;1.40;;
39300;SDS011;25019;42.626;23.380;2022-12-11T12:10:35;2.20;;;1.53;;
39300;SDS011;25019;42.626;23.380;2022-12-11T12:13:20;5.07;;;3.50;;
39300;SDS011;25019;42.626;23.380;2022-12-11T12:15:54;1.93;;;1.50;;
39300;SDS011;25019;42.626;23.380;2022-12-11T12:18:40;2.30;;;1.50;;
39300;SDS011;25019;42.626;23.380;2022-12-11T12:24:07;2.57;;;1.47;;
39300;SDS011;25019;42.626;23.380;2022-12-11T12:40:31;3.37;;;1.20;;
39300;SDS011;25019;42.626;23.380;2022-12-11T12:43:20;2.83;;;1.30;;
39300;SDS011;25019;42.626;23.380;2022-12-11T12:48:39;3.77;;;3.47;;
39300;SDS011;25019;42.626;23.380;2022-12-11T12:51:04;4.57;;;3.00;;
39300;SDS011;25019;42.626;23.380;2022-12-11T12:53:31;4.03;;;2.40;;
39300;SDS011;25019;42.626;23.380;2022-12-11T12:56:00;3.23;;;2.20;;
39300;SDS011;25019;42.626;23.380;2022-12-11T13:03:48;2.60;;;1.63;;
39300;SDS011;25019;42.626;23.380;2022-12-11T13:09:25;2.60;;;1.67;;
39300;SDS011;25019;42.626;23.380;2022-12-11T13:11:53;2.97;;;1.90;;
39300;SDS011;25019;42.626;23.380;2022-12-11T13:17:05;2.53;;;1.70;;
39300;SDS011;25019;42.626;23.380;2022-12-11T13:19:49;2.47;;;1.97;;
39300;SDS011;25019;42.626;23.380;2022-12-11T13:22:21;2.83;;;2.20;;
39300;SDS011;25019;42.626;23.380;2022-12-11T13:27:24;3.23;;;2.00;;
39300;SDS011;25019;42.626;23.380;2022-12-11T13:32:48;1.80;;;1.60;;
39300;SDS011;25019;42.626;23.380;2022-12-11T13:35:37;3.57;;;1.70;;
39300;SDS011;25019;42.626;23.380;2022-12-11T13:38:05;2.50;;;2.30;;
39300;SDS011;25019;42.626;23.380;2022-12-11T13:40:35;2.13;;;1.93;;
39300;SDS011;25019;42.626;23.380;2022-12-11T13:43:05;2.07;;;1.87;;
39300;SDS011;25019;42.626;23.380;2022-12-11T13:48:32;2.27;;;1.53;;
39300;SDS011;25019;42.626;23.380;2022-12-11T13:51:01;1.60;;;1.50;;
39300;SDS011;25019;42.626;23.380;2022-12-11T13:53:28;2.07;;;1.33;;
39300;SDS011;25019;42.626;23.380;2022-12-11T13:55:55;3.57;;;1.90;;
39300;SDS011;25019;42.626;23.380;2022-12-11T13:58:22;2.00;;;1.53;;
39300;SDS011;25019;42.626;23.380;2022-12-11T14:03:44;2.90;;;1.50;;
39300;SDS011;25019;42.626;23.380;2022-12-11T14:06:17;1.17;;;1.07;;
39300;SDS011;25019;42.626;23.380;2022-12-11T14:08:43;2.23;;;1.37;;
39300;SDS011;25019;42.626;23.380;2022-12-11T14:11:22;2.00;;;1.10;;
39300;SDS011;25019;42.626;23.380;2022-12-11T14:13:56;1.77;;;1.10;;
39300;SDS011;25019;42.626;23.380;2022-12-11T14:16:23;1.23;;;0.83;;
39300;SDS011;25019;42.626;23.380;2022-12-11T14:18:51;1.03;;;0.87;;
39300;SDS011;25019;42.626;23.380;2022-12-11T14:21:19;1.40;;;0.90;;
39300;SDS011;25019;42.626;23.380;2022-12-11T14:23:56;0.90;;;0.60;;
39300;SDS011;25019;42.626;23.380;2022-12-11T14:26:24;1.60;;;1.23;;
39300;SDS011;25019;42.626;23.380;2022-12-11T14:28:51;2.70;;;0.90;;
39300;SDS011;25019;42.626;23.380;2022-12-11T14:31:22;0.97;;;0.83;;
39300;SDS011;25019;42.626;23.380;2022-12-11T14:34:04;0.60;;;0.60;;
39300;SDS011;25019;42.626;23.380;2022-12-11T14:36:35;1.10;;;0.60;;
39300;SDS011;25019;42.626;23.380;2022-12-11T14:39:03;0.83;;;0.60;;
39300;SDS011;25019;42.626;23.380;2022-12-11T14:41:42;0.93;;;0.80;;
39300;SDS011;25019;42.626;23.380;2022-12-11T14:44:16;0.77;;;0.60;;
39300;SDS011;25019;42.626;23.380;2022-12-11T14:46:45;1.53;;;0.80;;
39300;SDS011;25019;42.626;23.380;2022-12-11T14:51:47;0.80;;;0.60;;
39300;SDS011;25019;42.626;23.380;2022-12-11T14:54:21;0.53;;;0.50;;
39300;SDS011;25019;42.626;23.380;2022-12-11T14:56:53;2.43;;;1.00;;
39300;SDS011;25019;42.626;23.380;2022-12-11T14:59:20;1.40;;;0.80;;
39300;SDS011;25019;42.626;23.380;2022-12-11T15:02:02;1.70;;;0.90;;
39300;SDS011;25019;42.626;23.380;2022-12-11T15:04:44;1.97;;;1.00;;
39300;SDS011;25019;42.626;23.380;2022-12-11T15:07:23;1.30;;;0.90;;
39300;SDS011;25019;42.626;23.380;2022-12-11T15:09:49;1.23;;;1.00;;
39300;SDS011;25019;42.626;23.380;2022-12-11T15:12:16;1.80;;;0.90;;
39300;SDS011;25019;42.626;23.380;2022-12-11T15:14:54;3.23;;;1.80;;
39300;SDS011;25019;42.626;23.380;2022-12-11T15:17:22;1.80;;;1.13;;
39300;SDS011;25019;42.626;23.380;2022-12-11T15:19:50;1.27;;;0.87;;
39300;SDS011;25019;42.626;23.380;2022-12-11T15:22:19;1.30;;;0.80;;
39300;SDS011;25019;42.626;23.380;2022-12-11T15:24:50;1.40;;;1.00;;
39300;SDS011;25019;42.626;23.380;2022-12-11T15:29:52;1.53;;;1.00;;
39300;SDS011;25019;42.626;23.380;2022-12-11T15:32:18;1.63;;;0.90;;
39300;SDS011;25019;42.626;23.380;2022-12-11T15:37:27;1.80;;;1.00;;
39300;SDS011;25019;42.626;23.380;2022-12-11T15:39:58;1.73;;;1.00;;
39300;SDS011;25019;42.626;23.380;2022-12-11T15:42:26;1.50;;;0.67;;
39300;SDS011;25019;42.626;23.380;2022-12-11T15:44:55;1.07;;;0.90;;
39300;SDS011;25019;42.626;23.380;2022-12-11T15:47:22;1.23;;;0.93;;
39300;SDS011;25019;42.626;23.380;2022-12-11T15:49:52;1.57;;;0.70;;
39300;SDS011;25019;42.626;23.380;2022-12-11T15:52:21;1.63;;;0.93;;
39300;SDS011;25019;42.626;23.380;2022-12-11T15:54:47;2.03;;;1.20;;
39300;SDS011;25019;42.626;23.380;2022-12-11T15:57:13;1.47;;;0.97;;
39300;SDS011;25019;42.626;23.380;2022-12-11T15:59:42;2.03;;;1.30;;
39300;SDS011;25019;42.626;23.380;2022-12-11T16:02:10;1.30;;;1.00;;
39300;SDS011;25019;42.626;23.380;2022-12-11T16:04:37;1.30;;;1.07;;
39300;SDS011;25019;42.626;23.380;2022-12-11T16:07:03;1.50;;;1.30;;
39300;SDS011;25019;42.626;23.380;2022-12-11T16:09:30;1.20;;;1.00;;
39300;SDS011;25019;42.626;23.380;2022-12-11T16:11:58;1.10;;;1.00;;
39300;SDS011;25019;42.626;23.380;2022-12-11T16:14:24;1.27;;;1.00;;
39300;SDS011;25019;42.626;23.380;2022-12-11T16:16:49;1.70;;;1.17;;
39300;SDS011;25019;42.626;23.380;2022-12-11T16:19:15;1.30;;;1.00;;
39300;SDS011;25019;42.626;23.380;2022-12-11T16:21:41;1.70;;;0.83;;
39300;SDS011;25019;42.626;23.380;2022-12-11T16:24:06;2.40;;;1.40;;